sensor_id;sensor_type;location;lat;lon;timestamp;temperature;humidity
4699;DHT22;33708;49.466;11.176;2023-04-15T00:01:24;6.40;99.90
4699;DHT22;33708;49.466;11.176;2023-04-15T00:03:51;6.40;99.90
4699;DHT22;33708;49.466;11.176;2023-04-15T00:06:18;6.50;99.90
4699;DHT22;33708;49.466;11.176;2023-04-15T00:08:47;6.50;99.90
4699;DHT22;33708;49.466;11.176;2023-04-15T00:11:13;6.50;99.90
4699;DHT22;33708;49.466;11.176;2023-04-15T00:13:39;6.30;99.90
4699;DHT22;33708;49.466;11.176;2023-04-15T00:16:06;6.40;99.90
4699;DHT22;33708;49.466;11.176;2023-04-15T00:18:33;6.50;99.90
4699;DHT22;33708;49.466;11.176;2023-04-15T00:20:58;6.40;99.90
4699;DHT22;33708;49.466;11.176;2023-04-15T00:23:24;6.50;99.90
4699;DHT22;33708;49.466;11.176;2023-04-15T00:25:51;6.40;99.90
4699;DHT22;33708;49.466;11.176;2023-04-15T00:28:17;6.40;99.90
4699;DHT22;33708;49.466;11.176;2023-04-15T00:30:43;6.40;99.90
4699;DHT22;33708;49.466;11.176;2023-04-15T00:33:09;6.50;99.90
4699;DHT22;33708;49.466;11.176;2023-04-15T00:35:35;6.50;99.90
4699;DHT22;33708;49.466;11.176;2023-04-15T00:38:02;6.60;99.90
4699;DHT22;33708;49.466;11.176;2023-04-15T00:40:28;6.60;99.90
4699;DHT22;33708;49.466;11.176;2023-04-15T00:42:53;6.70;99.90
4699;DHT22;33708;49.466;11.176;2023-04-15T00:45:19;6.70;99.90
4699;DHT22;33708;49.466;11.176;2023-04-15T00:47:45;6.70;99.90
4699;DHT22;33708;49.466;11.176;2023-04-15T00:50:11;6.70;99.90
4699;DHT22;33708;49.466;11.176;2023-04-15T00:52:38;6.50;99.90
4699;DHT22;33708;49.466;11.176;2023-04-15T00:55:04;6.50;99.90
4699;DHT22;33708;49.466;11.176;2023-04-15T00:57:30;6.50;99.90
4699;DHT22;33708;49.466;11.176;2023-04-15T00:59:57;6.60;99.90
4699;DHT22;33708;49.466;11.176;2023-04-15T01:02:23;6.60;99.90
4699;DHT22;33708;49.466;11.176;2023-04-15T01:04:49;6.70;99.90
4699;DHT22;33708;49.466;11.176;2023-04-15T01:07:15;6.80;99.90
4699;DHT22;33708;49.466;11.176;2023-04-15T01:09:41;6.80;99.90
4699;DHT22;33708;49.466;11.176;2023-04-15T01:12:07;6.80;99.90
4699;DHT22;33708;49.466;11.176;2023-04-15T01:14:35;6.90;99.90
4699;DHT22;33708;49.466;11.176;2023-04-15T01:17:00;6.80;99.90
4699;DHT22;33708;49.466;11.176;2023-04-15T01:19:26;6.80;99.90
4699;DHT22;33708;49.466;11.176;2023-04-15T01:21:53;6.80;99.90
4699;DHT22;33708;49.466;11.176;2023-04-15T01:24:18;6.80;99.90
4699;DHT22;33708;49.466;11.176;2023-04-15T01:26:44;6.80;99.90
4699;DHT22;33708;49.466;11.176;2023-04-15T01:29:11;6.80;99.90
4699;DHT22;33708;49.466;11.176;2023-04-15T01:31:36;6.90;99.90
4699;DHT22;33708;49.466;11.176;2023-04-15T01:34:02;6.90;99.90
4699;DHT22;33708;49.466;11.176;2023-04-15T01:36:27;6.90;99.90
4699;DHT22;33708;49.466;11.176;2023-04-15T01:38:55;6.90;99.90
4699;DHT22;33708;49.466;11.176;2023-04-15T01:41:27;6.90;99.90
4699;DHT22;33708;49.466;11.176;2023-04-15T01:43:53;7.00;99.90
4699;DHT22;33708;49.466;11.176;2023-04-15T01:46:19;7.00;99.90
4699;DHT22;33708;49.466;11.176;2023-04-15T01:48:45;7.00;99.90
4699;DHT22;33708;49.466;11.176;2023-04-15T01:51:11;7.00;99.90
4699;DHT22;33708;49.466;11.176;2023-04-15T01:53:37;7.10;99.90
4699;DHT22;33708;49.466;11.176;2023-04-15T01:56:02;7.00;99.90
4699;DHT22;33708;49.466;11.176;2023-04-15T01:58:28;7.00;99.90
4699;DHT22;33708;49.466;11.176;2023-04-15T02:00:55;7.00;99.90
4699;DHT22;33708;49.466;11.176;2023-04-15T02:03:20;6.90;99.90
4699;DHT22;33708;49.466;11.176;2023-04-15T02:05:46;7.00;99.90
4699;DHT22;33708;49.466;11.176;2023-04-15T02:08:12;7.00;99.90
4699;DHT22;33708;49.466;11.176;2023-04-15T02:10:37;7.00;99.90
4699;DHT22;33708;49.466;11.176;2023-04-15T02:13:04;7.10;99.90
4699;DHT22;33708;49.466;11.176;2023-04-15T02:15:29;7.00;99.90
4699;DHT22;33708;49.466;11.176;2023-04-15T02:17:55;7.00;99.90
4699;DHT22;33708;49.466;11.176;2023-04-15T02:20:21;6.90;99.90
4699;DHT22;33708;49.466;11.176;2023-04-15T02:22:48;6.80;99.90
4699;DHT22;33708;49.466;11.176;2023-04-15T02:25:14;6.80;99.90
4699;DHT22;33708;49.466;11.176;2023-04-15T02:27:41;6.80;99.90
4699;DHT22;33708;49.466;11.176;2023-04-15T02:30:07;6.80;99.90
4699;DHT22;33708;49.466;11.176;2023-04-15T02:32:33;6.70;99.90
4699;DHT22;33708;49.466;11.176;2023-04-15T02:35:03;6.80;99.90
4699;DHT22;33708;49.466;11.176;2023-04-15T02:37:30;6.90;99.90
4699;DHT22;33708;49.466;11.176;2023-04-15T02:39:56;6.90;99.90
4699;DHT22;33708;49.466;11.176;2023-04-15T02:42:22;6.90;99.90
4699;DHT22;33708;49.466;11.176;2023-04-15T02:44:47;7.00;99.90
4699;DHT22;33708;49.466;11.176;2023-04-15T02:47:13;7.10;99.90
4699;DHT22;33708;49.466;11.176;2023-04-15T02:49:39;7.00;99.90
4699;DHT22;33708;49.466;11.176;2023-04-15T02:52:05;7.10;99.90
4699;DHT22;33708;49.466;11.176;2023-04-15T02:54:31;7.10;99.90
4699;DHT22;33708;49.466;11.176;2023-04-15T02:56:58;7.10;99.90
4699;DHT22;33708;49.466;11.176;2023-04-15T02:59:24;7.10;99.90
4699;DHT22;33708;49.466;11.176;2023-04-15T03:01:50;7.20;99.90
4699;DHT22;33708;49.466;11.176;2023-04-15T03:04:15;7.20;99.90
4699;DHT22;33708;49.466;11.176;2023-04-15T03:06:41;7.20;99.90
4699;DHT22;33708;49.466;11.176;2023-04-15T03:09:07;7.20;99.90
4699;DHT22;33708;49.466;11.176;2023-04-15T03:11:32;7.00;99.90
4699;DHT22;33708;49.466;11.176;2023-04-15T03:13:58;7.10;99.90
4699;DHT22;33708;49.466;11.176;2023-04-15T03:16:24;7.00;99.90
4699;DHT22;33708;49.466;11.176;2023-04-15T03:18:50;7.10;99.90
4699;DHT22;33708;49.466;11.176;2023-04-15T03:21:15;7.10;99.90
4699;DHT22;33708;49.466;11.176;2023-04-15T03:23:41;7.10;99.90
4699;DHT22;33708;49.466;11.176;2023-04-15T03:26:07;7.20;99.90
4699;DHT22;33708;49.466;11.176;2023-04-15T03:28:32;7.20;99.90
4699;DHT22;33708;49.466;11.176;2023-04-15T03:30:58;7.20;99.90
4699;DHT22;33708;49.466;11.176;2023-04-15T03:33:24;7.20;99.90
4699;DHT22;33708;49.466;11.176;2023-04-15T03:35:51;7.10;99.90
4699;DHT22;33708;49.466;11.176;2023-04-15T03:38:17;7.20;99.90
4699;DHT22;33708;49.466;11.176;2023-04-15T03:40:44;7.20;99.90
4699;DHT22;33708;49.466;11.176;2023-04-15T03:43:10;7.20;99.90
4699;DHT22;33708;49.466;11.176;2023-04-15T03:45:35;7.20;99.90
4699;DHT22;33708;49.466;11.176;2023-04-15T03:48:01;7.10;99.90
4699;DHT22;33708;49.466;11.176;2023-04-15T03:50:26;7.10;99.90
4699;DHT22;33708;49.466;11.176;2023-04-15T03:52:52;7.10;99.90
4699;DHT22;33708;49.466;11.176;2023-04-15T03:55:18;7.10;99.90
4699;DHT22;33708;49.466;11.176;2023-04-15T03:57:44;7.00;99.70
4699;DHT22;33708;49.466;11.176;2023-04-15T04:00:11;7.00;98.90
4699;DHT22;33708;49.466;11.176;2023-04-15T04:02:36;7.00;99.80
4699;DHT22;33708;49.466;11.176;2023-04-15T04:05:02;7.20;99.90
4699;DHT22;33708;49.466;11.176;2023-04-15T04:07:28;7.10;99.60
4699;DHT22;33708;49.466;11.176;2023-04-15T04:09:56;7.10;99.50
4699;DHT22;33708;49.466;11.176;2023-04-15T04:12:22;7.20;99.90
4699;DHT22;33708;49.466;11.176;2023-04-15T04:14:47;7.30;99.90
4699;DHT22;33708;49.466;11.176;2023-04-15T04:17:13;7.90;99.90
4699;DHT22;33708;49.466;11.176;2023-04-15T04:19:38;7.40;99.90
4699;DHT22;33708;49.466;11.176;2023-04-15T04:22:04;7.40;99.90
4699;DHT22;33708;49.466;11.176;2023-04-15T04:24:30;7.40;99.90
4699;DHT22;33708;49.466;11.176;2023-04-15T04:26:56;7.40;99.90
4699;DHT22;33708;49.466;11.176;2023-04-15T04:29:22;7.40;99.90
4699;DHT22;33708;49.466;11.176;2023-04-15T04:31:47;7.40;99.90
4699;DHT22;33708;49.466;11.176;2023-04-15T04:34:14;8.10;99.90
4699;DHT22;33708;49.466;11.176;2023-04-15T04:36:39;7.50;99.90
4699;DHT22;33708;49.466;11.176;2023-04-15T04:39:05;7.50;99.90
4699;DHT22;33708;49.466;11.176;2023-04-15T04:41:30;7.40;99.90
4699;DHT22;33708;49.466;11.176;2023-04-15T04:43:56;7.50;99.90
4699;DHT22;33708;49.466;11.176;2023-04-15T04:46:22;7.50;99.90
4699;DHT22;33708;49.466;11.176;2023-04-15T04:48:48;7.40;99.90
4699;DHT22;33708;49.466;11.176;2023-04-15T04:51:14;7.50;99.90
4699;DHT22;33708;49.466;11.176;2023-04-15T04:53:39;7.60;99.90
4699;DHT22;33708;49.466;11.176;2023-04-15T04:56:08;7.70;99.90
4699;DHT22;33708;49.466;11.176;2023-04-15T04:58:33;7.70;99.90
4699;DHT22;33708;49.466;11.176;2023-04-15T05:00:59;7.70;99.90
4699;DHT22;33708;49.466;11.176;2023-04-15T05:03:25;7.70;99.90
4699;DHT22;33708;49.466;11.176;2023-04-15T05:05:51;7.80;99.90
4699;DHT22;33708;49.466;11.176;2023-04-15T05:08:17;7.80;99.90
4699;DHT22;33708;49.466;11.176;2023-04-15T05:10:42;7.70;99.90
4699;DHT22;33708;49.466;11.176;2023-04-15T05:13:08;7.80;99.90
4699;DHT22;33708;49.466;11.176;2023-04-15T05:15:34;7.80;99.90
4699;DHT22;33708;49.466;11.176;2023-04-15T05:18:01;7.90;99.90
4699;DHT22;33708;49.466;11.176;2023-04-15T05:20:27;8.00;99.90
4699;DHT22;33708;49.466;11.176;2023-04-15T05:22:52;8.00;99.60
4699;DHT22;33708;49.466;11.176;2023-04-15T05:25:18;8.10;99.50
4699;DHT22;33708;49.466;11.176;2023-04-15T05:27:43;8.10;98.60
4699;DHT22;33708;49.466;11.176;2023-04-15T05:30:09;8.20;98.20
4699;DHT22;33708;49.466;11.176;2023-04-15T05:32:35;8.20;95.30
4699;DHT22;33708;49.466;11.176;2023-04-15T05:35:00;7.00;93.80
4699;DHT22;33708;49.466;11.176;2023-04-15T05:37:26;8.20;95.20
4699;DHT22;33708;49.466;11.176;2023-04-15T05:39:51;8.20;90.90
4699;DHT22;33708;49.466;11.176;2023-04-15T05:42:17;8.20;92.00
4699;DHT22;33708;49.466;11.176;2023-04-15T05:44:42;8.10;92.60
4699;DHT22;33708;49.466;11.176;2023-04-15T05:47:08;8.20;95.10
4699;DHT22;33708;49.466;11.176;2023-04-15T05:49:35;8.10;92.10
4699;DHT22;33708;49.466;11.176;2023-04-15T05:52:01;8.10;91.30
4699;DHT22;33708;49.466;11.176;2023-04-15T05:54:26;8.20;93.70
4699;DHT22;33708;49.466;11.176;2023-04-15T05:56:52;7.90;93.30
4699;DHT22;33708;49.466;11.176;2023-04-15T05:59:18;8.20;93.60
4699;DHT22;33708;49.466;11.176;2023-04-15T06:01:43;8.20;91.90
4699;DHT22;33708;49.466;11.176;2023-04-15T06:04:09;8.20;95.50
4699;DHT22;33708;49.466;11.176;2023-04-15T06:06:36;8.20;99.90
4699;DHT22;33708;49.466;11.176;2023-04-15T06:09:01;8.20;96.70
4699;DHT22;33708;49.466;11.176;2023-04-15T06:11:27;8.20;98.40
4699;DHT22;33708;49.466;11.176;2023-04-15T06:13:52;8.30;98.60
4699;DHT22;33708;49.466;11.176;2023-04-15T06:16:18;8.30;96.30
4699;DHT22;33708;49.466;11.176;2023-04-15T06:18:43;8.30;98.20
4699;DHT22;33708;49.466;11.176;2023-04-15T06:21:09;8.60;99.90
4699;DHT22;33708;49.466;11.176;2023-04-15T06:23:35;8.70;98.50
4699;DHT22;33708;49.466;11.176;2023-04-15T06:26:01;8.70;96.80
4699;DHT22;33708;49.466;11.176;2023-04-15T06:28:27;8.80;96.90
4699;DHT22;33708;49.466;11.176;2023-04-15T06:30:53;8.80;96.90
4699;DHT22;33708;49.466;11.176;2023-04-15T06:33:19;8.80;98.20
4699;DHT22;33708;49.466;11.176;2023-04-15T06:35:45;8.80;98.30
4699;DHT22;33708;49.466;11.176;2023-04-15T06:38:10;9.00;97.70
4699;DHT22;33708;49.466;11.176;2023-04-15T06:40:36;9.00;97.70
4699;DHT22;33708;49.466;11.176;2023-04-15T06:43:01;9.10;97.70
4699;DHT22;33708;49.466;11.176;2023-04-15T06:45:29;9.20;95.90
4699;DHT22;33708;49.466;11.176;2023-04-15T06:47:54;9.40;95.70
4699;DHT22;33708;49.466;11.176;2023-04-15T06:50:20;9.40;93.40
4699;DHT22;33708;49.466;11.176;2023-04-15T06:52:45;9.50;94.90
4699;DHT22;33708;49.466;11.176;2023-04-15T06:55:11;9.50;95.90
4699;DHT22;33708;49.466;11.176;2023-04-15T06:57:37;9.60;92.10
4699;DHT22;33708;49.466;11.176;2023-04-15T07:00:03;9.50;90.90
4699;DHT22;33708;49.466;11.176;2023-04-15T07:02:30;9.60;91.60
4699;DHT22;33708;49.466;11.176;2023-04-15T07:04:55;9.60;90.90
4699;DHT22;33708;49.466;11.176;2023-04-15T07:07:21;9.80;92.00
4699;DHT22;33708;49.466;11.176;2023-04-15T07:09:47;9.80;90.30
4699;DHT22;33708;49.466;11.176;2023-04-15T07:12:12;9.80;86.90
4699;DHT22;33708;49.466;11.176;2023-04-15T07:14:38;9.70;82.60
4699;DHT22;33708;49.466;11.176;2023-04-15T07:17:03;9.70;80.90
4699;DHT22;33708;49.466;11.176;2023-04-15T07:19:29;10.10;83.20
4699;DHT22;33708;49.466;11.176;2023-04-15T07:21:54;10.10;85.90
4699;DHT22;33708;49.466;11.176;2023-04-15T07:24:20;10.20;74.00
4699;DHT22;33708;49.466;11.176;2023-04-15T07:26:47;10.30;70.90
4699;DHT22;33708;49.466;11.176;2023-04-15T07:29:13;10.50;69.30
4699;DHT22;33708;49.466;11.176;2023-04-15T07:31:39;10.60;73.20
4699;DHT22;33708;49.466;11.176;2023-04-15T07:34:06;10.40;67.10
4699;DHT22;33708;49.466;11.176;2023-04-15T07:36:32;10.00;65.00
4699;DHT22;33708;49.466;11.176;2023-04-15T07:38:57;10.40;72.20
4699;DHT22;33708;49.466;11.176;2023-04-15T07:41:23;9.90;67.00
4699;DHT22;33708;49.466;11.176;2023-04-15T07:43:48;10.00;67.50
4699;DHT22;33708;49.466;11.176;2023-04-15T07:46:14;11.30;77.50
4699;DHT22;33708;49.466;11.176;2023-04-15T07:48:40;9.90;66.00
4699;DHT22;33708;49.466;11.176;2023-04-15T07:51:07;10.40;78.40
4699;DHT22;33708;49.466;11.176;2023-04-15T07:53:33;9.60;1.00
4699;DHT22;33708;49.466;11.176;2023-04-15T07:55:58;9.80;99.90
4699;DHT22;33708;49.466;11.176;2023-04-15T07:58:24;9.50;1.00
4699;DHT22;33708;49.466;11.176;2023-04-15T08:00:50;9.40;99.90
4699;DHT22;33708;49.466;11.176;2023-04-15T08:03:16;9.80;99.90
4699;DHT22;33708;49.466;11.176;2023-04-15T08:05:41;9.20;99.90
4699;DHT22;33708;49.466;11.176;2023-04-15T08:08:07;9.80;99.90
4699;DHT22;33708;49.466;11.176;2023-04-15T08:10:33;9.50;99.90
4699;DHT22;33708;49.466;11.176;2023-04-15T08:12:58;9.80;99.90
4699;DHT22;33708;49.466;11.176;2023-04-15T08:15:24;9.90;99.90
4699;DHT22;33708;49.466;11.176;2023-04-15T08:17:51;9.40;95.10
4699;DHT22;33708;49.466;11.176;2023-04-15T08:20:16;9.10;93.90
4699;DHT22;33708;49.466;11.176;2023-04-15T08:22:42;9.30;98.00
4699;DHT22;33708;49.466;11.176;2023-04-15T08:25:08;8.60;93.90
4699;DHT22;33708;49.466;11.176;2023-04-15T08:27:34;8.80;99.90
4699;DHT22;33708;49.466;11.176;2023-04-15T08:30:00;8.70;99.90
4699;DHT22;33708;49.466;11.176;2023-04-15T08:32:26;8.80;99.90
4699;DHT22;33708;49.466;11.176;2023-04-15T08:34:51;8.30;99.90
4699;DHT22;33708;49.466;11.176;2023-04-15T08:37:17;8.50;99.90
4699;DHT22;33708;49.466;11.176;2023-04-15T08:39:43;8.60;99.90
4699;DHT22;33708;49.466;11.176;2023-04-15T08:42:16;8.90;99.90
4699;DHT22;33708;49.466;11.176;2023-04-15T08:44:42;8.90;99.90
4699;DHT22;33708;49.466;11.176;2023-04-15T08:47:12;9.20;99.90
4699;DHT22;33708;49.466;11.176;2023-04-15T08:49:41;8.80;1.00
4699;DHT22;33708;49.466;11.176;2023-04-15T08:52:08;8.90;99.90
4699;DHT22;33708;49.466;11.176;2023-04-15T08:54:34;8.90;99.90
4699;DHT22;33708;49.466;11.176;2023-04-15T08:57:01;8.80;99.90
4699;DHT22;33708;49.466;11.176;2023-04-15T08:59:29;9.10;99.90
4699;DHT22;33708;49.466;11.176;2023-04-15T09:01:56;9.30;99.90
4699;DHT22;33708;49.466;11.176;2023-04-15T09:04:23;9.30;99.90
4699;DHT22;33708;49.466;11.176;2023-04-15T09:06:48;9.60;99.90
4699;DHT22;33708;49.466;11.176;2023-04-15T09:09:14;9.30;99.90
4699;DHT22;33708;49.466;11.176;2023-04-15T09:11:40;9.10;99.90
4699;DHT22;33708;49.466;11.176;2023-04-15T09:14:06;9.50;99.90
4699;DHT22;33708;49.466;11.176;2023-04-15T09:16:55;9.70;99.90
4699;DHT22;33708;49.466;11.176;2023-04-15T09:19:22;9.60;99.90
4699;DHT22;33708;49.466;11.176;2023-04-15T09:21:48;9.70;99.90
4699;DHT22;33708;49.466;11.176;2023-04-15T09:24:16;9.20;99.90
4699;DHT22;33708;49.466;11.176;2023-04-15T09:26:41;9.20;99.90
4699;DHT22;33708;49.466;11.176;2023-04-15T09:29:11;9.30;99.90
4699;DHT22;33708;49.466;11.176;2023-04-15T09:31:40;9.40;99.90
4699;DHT22;33708;49.466;11.176;2023-04-15T09:34:06;9.20;99.90
4699;DHT22;33708;49.466;11.176;2023-04-15T09:36:54;9.20;99.90
4699;DHT22;33708;49.466;11.176;2023-04-15T09:39:20;9.50;99.90
4699;DHT22;33708;49.466;11.176;2023-04-15T09:41:46;10.00;99.50
4699;DHT22;33708;49.466;11.176;2023-04-15T09:44:22;10.30;99.90
4699;DHT22;33708;49.466;11.176;2023-04-15T09:46:48;10.00;96.00
4699;DHT22;33708;49.466;11.176;2023-04-15T09:49:13;10.10;95.10
4699;DHT22;33708;49.466;11.176;2023-04-15T09:51:40;10.10;96.00
4699;DHT22;33708;49.466;11.176;2023-04-15T09:54:05;9.70;93.70
4699;DHT22;33708;49.466;11.176;2023-04-15T09:56:35;9.40;99.40
4699;DHT22;33708;49.466;11.176;2023-04-15T09:59:08;9.60;99.90
4699;DHT22;33708;49.466;11.176;2023-04-15T10:01:34;9.40;99.90
4699;DHT22;33708;49.466;11.176;2023-04-15T10:04:02;9.30;98.70
4699;DHT22;33708;49.466;11.176;2023-04-15T10:06:29;9.30;99.90
4699;DHT22;33708;49.466;11.176;2023-04-15T10:08:56;9.00;99.90
4699;DHT22;33708;49.466;11.176;2023-04-15T10:11:23;9.10;99.90
4699;DHT22;33708;49.466;11.176;2023-04-15T10:13:49;9.20;99.90
4699;DHT22;33708;49.466;11.176;2023-04-15T10:16:18;8.70;99.90
4699;DHT22;33708;49.466;11.176;2023-04-15T10:18:46;8.70;99.90
4699;DHT22;33708;49.466;11.176;2023-04-15T10:21:12;8.40;99.90
4699;DHT22;33708;49.466;11.176;2023-04-15T10:23:41;9.00;99.90
4699;DHT22;33708;49.466;11.176;2023-04-15T10:26:07;9.00;99.90
4699;DHT22;33708;49.466;11.176;2023-04-15T10:28:34;8.50;99.90
4699;DHT22;33708;49.466;11.176;2023-04-15T10:31:00;8.70;99.90
4699;DHT22;33708;49.466;11.176;2023-04-15T10:33:26;8.50;99.90
4699;DHT22;33708;49.466;11.176;2023-04-15T10:35:54;8.60;99.90
4699;DHT22;33708;49.466;11.176;2023-04-15T10:41:23;8.90;99.90
4699;DHT22;33708;49.466;11.176;2023-04-15T10:43:56;9.20;99.90
4699;DHT22;33708;49.466;11.176;2023-04-15T10:46:42;9.50;99.90
4699;DHT22;33708;49.466;11.176;2023-04-15T10:49:13;10.40;99.90
4699;DHT22;33708;49.466;11.176;2023-04-15T10:51:44;11.10;97.90
4699;DHT22;33708;49.466;11.176;2023-04-15T10:59:30;12.50;64.80
4699;DHT22;33708;49.466;11.176;2023-04-15T11:02:06;13.00;54.10
4699;DHT22;33708;49.466;11.176;2023-04-15T11:04:54;13.40;47.60
4699;DHT22;33708;49.466;11.176;2023-04-15T11:07:40;12.30;25.00
4699;DHT22;33708;49.466;11.176;2023-04-15T11:12:56;11.90;26.70
4699;DHT22;33708;49.466;11.176;2023-04-15T11:15:35;10.10;20.40
4699;DHT22;33708;49.466;11.176;2023-04-15T11:18:25;10.50;30.10
4699;DHT22;33708;49.466;11.176;2023-04-15T11:20:54;10.20;26.90
4699;DHT22;33708;49.466;11.176;2023-04-15T11:23:31;10.40;29.20
4699;DHT22;33708;49.466;11.176;2023-04-15T11:25:59;10.30;33.90
4699;DHT22;33708;49.466;11.176;2023-04-15T11:28:30;10.30;29.10
4699;DHT22;33708;49.466;11.176;2023-04-15T11:30:56;9.60;29.90
4699;DHT22;33708;49.466;11.176;2023-04-15T11:33:23;10.40;32.30
4699;DHT22;33708;49.466;11.176;2023-04-15T11:35:51;10.50;34.20
4699;DHT22;33708;49.466;11.176;2023-04-15T11:38:17;11.00;35.40
4699;DHT22;33708;49.466;11.176;2023-04-15T11:40:44;11.40;43.50
4699;DHT22;33708;49.466;11.176;2023-04-15T11:45:36;11.80;23.20
4699;DHT22;33708;49.466;11.176;2023-04-15T11:50:32;11.10;21.60
4699;DHT22;33708;49.466;11.176;2023-04-15T11:53:00;10.20;15.40
4699;DHT22;33708;49.466;11.176;2023-04-15T11:55:27;10.50;19.40
4699;DHT22;33708;49.466;11.176;2023-04-15T11:58:18;10.90;26.80
4699;DHT22;33708;49.466;11.176;2023-04-15T12:00:58;10.80;19.70
4699;DHT22;33708;49.466;11.176;2023-04-15T12:03:42;10.80;12.80
4699;DHT22;33708;49.466;11.176;2023-04-15T12:11:44;12.50;10.30
4699;DHT22;33708;49.466;11.176;2023-04-15T12:16:48;11.80;1.00
4699;DHT22;33708;49.466;11.176;2023-04-15T12:19:22;11.40;1.40
4699;DHT22;33708;49.466;11.176;2023-04-15T12:21:48;11.40;3.20
4699;DHT22;33708;49.466;11.176;2023-04-15T12:24:14;11.00;4.50
4699;DHT22;33708;49.466;11.176;2023-04-15T12:26:45;11.10;7.20
4699;DHT22;33708;49.466;11.176;2023-04-15T12:29:12;10.70;5.90
4699;DHT22;33708;49.466;11.176;2023-04-15T12:32:03;10.70;13.30
4699;DHT22;33708;49.466;11.176;2023-04-15T12:34:31;10.80;12.70
4699;DHT22;33708;49.466;11.176;2023-04-15T12:36:59;10.70;3.60
4699;DHT22;33708;49.466;11.176;2023-04-15T12:39:28;11.10;5.40
4699;DHT22;33708;49.466;11.176;2023-04-15T12:41:54;11.10;3.70
4699;DHT22;33708;49.466;11.176;2023-04-15T12:44:22;10.80;2.30
4699;DHT22;33708;49.466;11.176;2023-04-15T12:46:49;11.20;6.30
4699;DHT22;33708;49.466;11.176;2023-04-15T12:49:15;11.00;1.70
4699;DHT22;33708;49.466;11.176;2023-04-15T12:51:41;10.90;2.40
4699;DHT22;33708;49.466;11.176;2023-04-15T12:54:07;10.90;1.80
4699;DHT22;33708;49.466;11.176;2023-04-15T12:56:32;10.70;2.40
4699;DHT22;33708;49.466;11.176;2023-04-15T12:58:58;11.10;2.60
4699;DHT22;33708;49.466;11.176;2023-04-15T13:01:24;11.30;1.70
4699;DHT22;33708;49.466;11.176;2023-04-15T13:03:50;11.60;2.70
4699;DHT22;33708;49.466;11.176;2023-04-15T13:06:15;11.70;2.20
4699;DHT22;33708;49.466;11.176;2023-04-15T13:08:42;11.70;1.00
4699;DHT22;33708;49.466;11.176;2023-04-15T13:11:07;11.50;1.00
4699;DHT22;33708;49.466;11.176;2023-04-15T13:13:33;11.00;1.00
4699;DHT22;33708;49.466;11.176;2023-04-15T13:15:59;11.30;1.00
4699;DHT22;33708;49.466;11.176;2023-04-15T13:18:25;11.40;1.00
4699;DHT22;33708;49.466;11.176;2023-04-15T13:20:50;11.60;1.00
4699;DHT22;33708;49.466;11.176;2023-04-15T13:23:16;12.20;1.00
4699;DHT22;33708;49.466;11.176;2023-04-15T13:25:42;12.10;1.00
4699;DHT22;33708;49.466;11.176;2023-04-15T13:28:09;12.10;1.00
4699;DHT22;33708;49.466;11.176;2023-04-15T13:30:37;11.30;1.00
4699;DHT22;33708;49.466;11.176;2023-04-15T13:33:03;11.30;1.00
4699;DHT22;33708;49.466;11.176;2023-04-15T13:35:30;10.70;1.00
4699;DHT22;33708;49.466;11.176;2023-04-15T13:37:55;10.30;1.00
4699;DHT22;33708;49.466;11.176;2023-04-15T13:40:21;10.50;1.00
4699;DHT22;33708;49.466;11.176;2023-04-15T13:42:47;10.30;1.00
4699;DHT22;33708;49.466;11.176;2023-04-15T13:45:13;10.10;1.00
4699;DHT22;33708;49.466;11.176;2023-04-15T13:47:39;10.00;1.00
4699;DHT22;33708;49.466;11.176;2023-04-15T13:50:05;10.00;1.00
4699;DHT22;33708;49.466;11.176;2023-04-15T13:52:31;9.90;1.00
4699;DHT22;33708;49.466;11.176;2023-04-15T13:54:57;9.90;1.00
4699;DHT22;33708;49.466;11.176;2023-04-15T13:57:22;10.10;1.00
4699;DHT22;33708;49.466;11.176;2023-04-15T13:59:48;10.00;1.00
4699;DHT22;33708;49.466;11.176;2023-04-15T14:02:14;10.20;1.30
4699;DHT22;33708;49.466;11.176;2023-04-15T14:04:39;10.30;12.10
4699;DHT22;33708;49.466;11.176;2023-04-15T14:07:05;10.10;1.00
4699;DHT22;33708;49.466;11.176;2023-04-15T14:09:30;10.20;1.00
4699;DHT22;33708;49.466;11.176;2023-04-15T14:11:56;10.10;1.00
4699;DHT22;33708;49.466;11.176;2023-04-15T14:14:23;10.10;1.10
4699;DHT22;33708;49.466;11.176;2023-04-15T14:16:48;10.30;2.30
4699;DHT22;33708;49.466;11.176;2023-04-15T14:19:14;10.70;4.70
4699;DHT22;33708;49.466;11.176;2023-04-15T14:21:40;11.10;6.30
4699;DHT22;33708;49.466;11.176;2023-04-15T14:24:06;11.00;4.60
4699;DHT22;33708;49.466;11.176;2023-04-15T14:26:31;10.70;1.00
4699;DHT22;33708;49.466;11.176;2023-04-15T14:28:57;10.60;3.20
4699;DHT22;33708;49.466;11.176;2023-04-15T14:31:23;10.30;3.60
4699;DHT22;33708;49.466;11.176;2023-04-15T14:33:48;9.60;2.40
4699;DHT22;33708;49.466;11.176;2023-04-15T14:36:14;9.80;6.60
4699;DHT22;33708;49.466;11.176;2023-04-15T14:38:39;9.70;9.20
4699;DHT22;33708;49.466;11.176;2023-04-15T14:41:06;9.80;11.30
4699;DHT22;33708;49.466;11.176;2023-04-15T14:43:33;9.60;12.60
4699;DHT22;33708;49.466;11.176;2023-04-15T14:45:58;9.60;12.40
4699;DHT22;33708;49.466;11.176;2023-04-15T14:48:24;9.70;14.30
4699;DHT22;33708;49.466;11.176;2023-04-15T14:50:51;9.90;13.90
4699;DHT22;33708;49.466;11.176;2023-04-15T14:53:16;9.90;12.00
4699;DHT22;33708;49.466;11.176;2023-04-15T14:55:42;9.70;11.40
4699;DHT22;33708;49.466;11.176;2023-04-15T14:58:08;9.80;11.20
4699;DHT22;33708;49.466;11.176;2023-04-15T15:00:34;9.80;14.30
4699;DHT22;33708;49.466;11.176;2023-04-15T15:03:00;10.10;16.50
4699;DHT22;33708;49.466;11.176;2023-04-15T15:05:26;10.20;14.60
4699;DHT22;33708;49.466;11.176;2023-04-15T15:07:53;10.20;13.90
4699;DHT22;33708;49.466;11.176;2023-04-15T15:10:18;10.10;14.80
4699;DHT22;33708;49.466;11.176;2023-04-15T15:12:44;9.90;15.80
4699;DHT22;33708;49.466;11.176;2023-04-15T15:15:10;10.00;16.90
4699;DHT22;33708;49.466;11.176;2023-04-15T15:17:35;10.00;16.40
4699;DHT22;33708;49.466;11.176;2023-04-15T15:20:01;9.80;20.50
4699;DHT22;33708;49.466;11.176;2023-04-15T15:22:28;9.80;23.10
4699;DHT22;33708;49.466;11.176;2023-04-15T15:24:53;10.00;30.20
4699;DHT22;33708;49.466;11.176;2023-04-15T15:27:19;9.90;29.60
4699;DHT22;33708;49.466;11.176;2023-04-15T15:29:45;10.00;44.50
4699;DHT22;33708;49.466;11.176;2023-04-15T15:32:10;9.90;30.40
4699;DHT22;33708;49.466;11.176;2023-04-15T15:34:36;9.80;32.30
4699;DHT22;33708;49.466;11.176;2023-04-15T15:37:02;9.90;39.90
4699;DHT22;33708;49.466;11.176;2023-04-15T15:39:27;10.00;46.20
4699;DHT22;33708;49.466;11.176;2023-04-15T15:41:53;10.10;41.20
4699;DHT22;33708;49.466;11.176;2023-04-15T15:44:18;9.80;40.60
4699;DHT22;33708;49.466;11.176;2023-04-15T15:46:44;9.80;59.50
4699;DHT22;33708;49.466;11.176;2023-04-15T15:49:10;9.60;46.50
4699;DHT22;33708;49.466;11.176;2023-04-15T15:51:35;11.00;57.90
4699;DHT22;33708;49.466;11.176;2023-04-15T15:54:01;10.00;60.40
4699;DHT22;33708;49.466;11.176;2023-04-15T15:56:27;10.00;55.90
4699;DHT22;33708;49.466;11.176;2023-04-15T15:58:52;10.10;54.20
4699;DHT22;33708;49.466;11.176;2023-04-15T16:01:18;9.90;55.50
4699;DHT22;33708;49.466;11.176;2023-04-15T16:03:43;9.80;59.00
4699;DHT22;33708;49.466;11.176;2023-04-15T16:06:09;9.60;63.30